createdAt,value
2023-05-07T00:00:34.829Z,952.7
2023-05-07T00:01:36.676Z,952.7
2023-05-07T00:02:39.120Z,952.7
2023-05-07T00:03:41.772Z,952.7
2023-05-07T00:04:44.080Z,952.7
2023-05-07T00:05:46.011Z,952.7
2023-05-07T00:06:47.976Z,952.8
2023-05-07T00:07:49.953Z,952.8
2023-05-07T00:08:51.869Z,952.8
2023-05-07T00:09:54.152Z,952.8
2023-05-07T00:10:56.019Z,952.8
2023-05-07T00:11:57.838Z,952.8
2023-05-07T00:12:59.907Z,952.8
2023-05-07T00:14:02.047Z,952.8
2023-05-07T00:15:03.894Z,952.8
2023-05-07T00:16:06.062Z,952.8
2023-05-07T00:17:08.009Z,952.8
2023-05-07T00:18:09.849Z,952.9
2023-05-07T00:19:11.836Z,952.9
2023-05-07T00:20:14.303Z,952.9
2023-05-07T00:21:16.042Z,952.9
2023-05-07T00:22:17.771Z,952.9
2023-05-07T00:23:19.709Z,952.9
2023-05-07T00:24:21.566Z,952.9
2023-05-07T00:25:23.505Z,952.9
2023-05-07T00:26:25.277Z,952.9
2023-05-07T00:27:27.065Z,952.8
2023-05-07T00:28:28.976Z,952.9
2023-05-07T00:29:30.812Z,952.9
2023-05-07T00:30:32.778Z,952.9
2023-05-07T00:31:34.876Z,952.9
2023-05-07T00:32:36.794Z,952.9
2023-05-07T00:33:38.632Z,952.8
2023-05-07T00:34:40.377Z,952.9
2023-05-07T00:35:42.331Z,952.9
2023-05-07T00:36:44.181Z,952.9
2023-05-07T00:37:46.153Z,953
2023-05-07T00:38:47.990Z,952.9
2023-05-07T00:39:49.827Z,952.9
2023-05-07T00:40:51.985Z,953
2023-05-07T00:41:53.948Z,952.9
2023-05-07T00:42:55.900Z,952.9
2023-05-07T00:43:57.736Z,952.9
2023-05-07T00:44:59.588Z,952.9
2023-05-07T00:46:01.472Z,953
2023-05-07T00:47:03.401Z,952.9
2023-05-07T00:48:05.399Z,952.9
2023-05-07T00:49:07.194Z,952.8
2023-05-07T00:50:09.763Z,952.9
2023-05-07T00:51:12.022Z,952.9
2023-05-07T00:52:13.880Z,952.9
2023-05-07T00:53:15.833Z,952.9
2023-05-07T00:54:17.769Z,952.9
2023-05-07T00:55:19.627Z,952.9
2023-05-07T00:56:21.559Z,952.9
2023-05-07T00:57:23.529Z,952.9
2023-05-07T00:58:25.460Z,952.9
2023-05-07T00:59:27.566Z,953
2023-05-07T01:00:29.373Z,953
2023-05-07T01:01:31.439Z,953
2023-05-07T01:02:33.609Z,953
2023-05-07T01:03:36.349Z,953
2023-05-07T01:04:39.602Z,953
2023-05-07T01:05:43.254Z,952.9
2023-05-07T01:06:46.832Z,952.9
2023-05-07T01:07:49.393Z,952.9
2023-05-07T01:08:51.167Z,952.9
2023-05-07T01:09:53.356Z,952.9
2023-05-07T01:10:55.157Z,953
2023-05-07T01:11:57.116Z,953
2023-05-07T01:12:59.210Z,953.1
2023-05-07T01:14:01.061Z,953
2023-05-07T01:15:03.052Z,953
2023-05-07T01:16:04.934Z,953.1
2023-05-07T01:17:07.029Z,953
2023-05-07T01:18:09.174Z,953
2023-05-07T01:19:11.192Z,953
2023-05-07T01:20:14.286Z,953
2023-05-07T01:21:16.536Z,953
2023-05-07T01:22:18.482Z,952.9
2023-05-07T01:23:20.327Z,952.9
2023-05-07T01:24:22.277Z,952.9
2023-05-07T01:25:24.248Z,952.9
2023-05-07T01:26:26.187Z,952.9
2023-05-07T01:27:28.036Z,952.9
2023-05-07T01:28:30.105Z,952.9
2023-05-07T01:29:31.950Z,952.9
2023-05-07T01:30:33.761Z,952.9
2023-05-07T01:31:35.621Z,952.8
2023-05-07T01:32:37.928Z,952.8
2023-05-07T01:33:39.749Z,952.8
2023-05-07T01:34:41.601Z,952.9
2023-05-07T01:35:43.557Z,952.8
2023-05-07T01:36:45.406Z,952.8
2023-05-07T01:37:47.260Z,952.8
2023-05-07T01:38:48.999Z,952.8
2023-05-07T01:39:50.861Z,952.8
2023-05-07T01:40:52.765Z,952.8
2023-05-07T01:41:54.528Z,952.8
2023-05-07T01:42:56.702Z,952.8
2023-05-07T01:43:58.669Z,952.8
2023-05-07T01:45:00.624Z,952.8
2023-05-07T01:46:02.689Z,952.8
2023-05-07T01:47:04.629Z,952.7
2023-05-07T01:48:06.636Z,952.7
2023-05-07T01:49:08.519Z,952.8
2023-05-07T01:50:11.097Z,952.8
2023-05-07T01:51:13.461Z,952.8
2023-05-07T01:52:15.310Z,952.8
2023-05-07T01:53:17.154Z,952.8
2023-05-07T01:54:19.012Z,952.7
2023-05-07T01:55:20.887Z,952.8
2023-05-07T01:56:22.804Z,952.7
2023-05-07T01:57:24.650Z,952.7
2023-05-07T01:58:26.512Z,952.7
2023-05-07T01:59:28.361Z,952.6
2023-05-07T02:00:30.314Z,952.7
2023-05-07T02:01:32.366Z,952.6
2023-05-07T02:02:34.906Z,952.7
2023-05-07T02:03:37.192Z,952.7
2023-05-07T02:04:39.521Z,952.7
2023-05-07T02:05:41.522Z,952.6
2023-05-07T02:06:43.355Z,952.6
2023-05-07T02:07:45.108Z,952.6
2023-05-07T02:08:46.943Z,952.6
2023-05-07T02:09:48.710Z,952.6
2023-05-07T02:10:50.456Z,952.6
2023-05-07T02:11:52.409Z,952.6
2023-05-07T02:12:54.600Z,952.6
2023-05-07T02:13:56.717Z,952.5
2023-05-07T02:14:58.662Z,952.5
2023-05-07T02:16:00.640Z,952.5
2023-05-07T02:17:02.782Z,952.4
2023-05-07T02:18:04.909Z,952.5
2023-05-07T02:19:07.006Z,952.5
2023-05-07T02:20:09.406Z,952.5
2023-05-07T02:21:11.619Z,952.4
2023-05-07T02:22:13.468Z,952.4
2023-05-07T02:23:15.368Z,952.4
2023-05-07T02:24:17.269Z,952.4
2023-05-07T02:25:19.434Z,952.4
2023-05-07T02:26:21.196Z,952.4
2023-05-07T02:27:23.016Z,952.4
2023-05-07T02:28:24.854Z,952.4
2023-05-07T02:29:26.917Z,952.4
2023-05-07T02:30:28.969Z,952.4
2023-05-07T02:31:30.942Z,952.4
2023-05-07T02:32:33.095Z,952.4
2023-05-07T02:33:35.039Z,952.5
2023-05-07T02:34:36.898Z,952.4
2023-05-07T02:35:38.850Z,952.5
2023-05-07T02:36:40.704Z,952.5
2023-05-07T02:37:42.550Z,952.6
2023-05-07T02:38:44.309Z,952.6
2023-05-07T02:39:46.127Z,952.6
2023-05-07T02:40:47.991Z,952.5
2023-05-07T02:41:49.817Z,952.5
2023-05-07T02:42:51.786Z,952.5
2023-05-07T02:43:53.519Z,952.5
2023-05-07T02:44:55.389Z,952.4
2023-05-07T02:45:57.580Z,952.4
2023-05-07T02:46:59.613Z,952.4
2023-05-07T02:48:01.649Z,952.5
2023-05-07T02:49:03.515Z,952.4
2023-05-07T02:50:05.283Z,952.5
2023-05-07T02:51:07.224Z,952.5
2023-05-07T02:52:08.972Z,952.5
2023-05-07T02:53:10.711Z,952.5
2023-05-07T02:54:12.559Z,952.5
2023-05-07T02:55:14.497Z,952.5
2023-05-07T02:56:16.363Z,952.5
2023-05-07T02:57:18.219Z,952.5
2023-05-07T02:58:20.154Z,952.5
2023-05-07T02:59:22.021Z,952.5
2023-05-07T03:00:23.959Z,952.5
2023-05-07T03:01:26.080Z,952.5
2023-05-07T03:02:28.186Z,952.5
2023-05-07T03:03:30.023Z,952.5
2023-05-07T03:04:32.146Z,952.5
2023-05-07T03:05:34.232Z,952.5
2023-05-07T03:06:36.201Z,952.5
2023-05-07T03:07:38.033Z,952.5
2023-05-07T03:08:39.891Z,952.5
2023-05-07T03:09:41.738Z,952.5
2023-05-07T03:10:43.510Z,952.5
2023-05-07T03:11:45.441Z,952.5
2023-05-07T03:12:47.322Z,952.5
2023-05-07T03:13:49.266Z,952.6
2023-05-07T03:14:51.090Z,952.6
2023-05-07T03:15:53.140Z,952.6
2023-05-07T03:16:55.090Z,952.6
2023-05-07T03:17:57.081Z,952.6
2023-05-07T03:18:59.401Z,952.6
2023-05-07T03:20:01.270Z,952.6
2023-05-07T03:21:03.253Z,952.6
2023-05-07T03:22:05.268Z,952.6
2023-05-07T03:23:06.979Z,952.6
2023-05-07T03:24:08.942Z,952.7
2023-05-07T03:25:10.722Z,952.7
2023-05-07T03:26:12.595Z,952.7
2023-05-07T03:27:14.315Z,952.7
2023-05-07T03:28:16.157Z,952.7
2023-05-07T03:29:18.553Z,952.7
2023-05-07T03:30:20.582Z,952.7
2023-05-07T03:31:22.560Z,952.7
2023-05-07T03:32:24.603Z,952.7
2023-05-07T03:33:26.429Z,952.7
2023-05-07T03:34:28.375Z,952.7
2023-05-07T03:35:30.332Z,952.7
2023-05-07T03:36:32.183Z,952.7
2023-05-07T03:37:34.038Z,952.7
2023-05-07T03:38:36.107Z,952.7
2023-05-07T03:39:37.946Z,952.7
2023-05-07T03:40:39.795Z,952.7
2023-05-07T03:41:41.645Z,952.7
2023-05-07T03:42:43.461Z,952.7
2023-05-07T03:43:45.444Z,952.7
2023-05-07T03:44:47.391Z,952.7
2023-05-07T03:45:49.142Z,952.7
2023-05-07T03:46:51.459Z,952.7
2023-05-07T03:47:53.479Z,952.7
2023-05-07T03:48:55.332Z,952.8
2023-05-07T03:49:57.126Z,952.8
2023-05-07T03:50:59.120Z,952.8
2023-05-07T03:52:00.957Z,952.8
2023-05-07T03:53:02.823Z,952.8
2023-05-07T03:54:04.664Z,952.8
2023-05-07T03:55:06.623Z,952.8
2023-05-07T03:56:08.480Z,952.8
2023-05-07T03:57:10.282Z,952.8
2023-05-07T03:58:12.072Z,952.8
2023-05-07T03:59:13.922Z,952.9
2023-05-07T04:00:15.786Z,952.8
2023-05-07T04:01:17.498Z,952.9
2023-05-07T04:02:19.497Z,952.9
2023-05-07T04:03:21.994Z,952.9
2023-05-07T04:04:24.384Z,952.9
2023-05-07T04:05:26.654Z,952.9
2023-05-07T04:06:28.497Z,952.9
2023-05-07T04:07:30.351Z,952.9
2023-05-07T04:08:32.196Z,952.9
2023-05-07T04:09:34.159Z,953
2023-05-07T04:10:35.993Z,952.9
2023-05-07T04:11:37.950Z,953
2023-05-07T04:12:39.921Z,953
2023-05-07T04:13:41.752Z,953
2023-05-07T04:14:43.710Z,953
2023-05-07T04:15:45.650Z,953
2023-05-07T04:16:47.750Z,953
2023-05-07T04:17:50.113Z,953.1
2023-05-07T04:18:52.118Z,953.1
2023-05-07T04:19:54.084Z,953.1
2023-05-07T04:20:56.032Z,953.1
2023-05-07T04:21:57.991Z,953.1
2023-05-07T04:23:02.806Z,953.1
2023-05-07T04:24:04.658Z,953.2
2023-05-07T04:25:06.514Z,953.1
2023-05-07T04:26:08.355Z,953.2
2023-05-07T04:27:10.234Z,953.2
2023-05-07T04:28:12.168Z,953.2
2023-05-07T04:29:14.007Z,953.2
2023-05-07T04:30:15.773Z,953.2
2023-05-07T04:31:17.974Z,953.2
2023-05-07T04:32:20.135Z,953.2
2023-05-07T04:33:22.231Z,953.2
2023-05-07T04:34:24.098Z,953.2
2023-05-07T04:35:25.929Z,953.3
2023-05-07T04:36:27.784Z,953.3
2023-05-07T04:37:29.622Z,953.3
2023-05-07T04:38:31.601Z,953.3
2023-05-07T04:39:33.434Z,953.3
2023-05-07T04:40:35.209Z,953.3
2023-05-07T04:41:37.031Z,953.3
2023-05-07T04:42:38.880Z,953.3
2023-05-07T04:43:40.926Z,953.4
2023-05-07T04:44:42.778Z,953.4
2023-05-07T04:45:44.751Z,953.4
2023-05-07T04:46:46.710Z,953.4
2023-05-07T04:47:48.754Z,953.4
2023-05-07T04:48:50.910Z,953.4
2023-05-07T04:49:52.657Z,953.4
2023-05-07T04:50:54.499Z,953.4
2023-05-07T04:51:56.643Z,953.4
2023-05-07T04:52:58.501Z,953.4
2023-05-07T04:54:00.352Z,953.4
2023-05-07T04:55:02.311Z,953.4
2023-05-07T04:56:04.079Z,953.4
2023-05-07T04:57:05.907Z,953.4
2023-05-07T04:58:07.855Z,953.4
2023-05-07T04:59:09.711Z,953.4
2023-05-07T05:00:12.426Z,953.4
2023-05-07T05:01:15.088Z,953.4
2023-05-07T05:02:21.267Z,953.4
2023-05-07T05:03:23.592Z,953.4
2023-05-07T05:04:25.709Z,953.4
2023-05-07T05:05:27.659Z,953.4
2023-05-07T05:06:29.412Z,953.3
2023-05-07T05:07:31.362Z,953.3
2023-05-07T05:08:33.220Z,953.4
2023-05-07T05:09:35.077Z,953.3
2023-05-07T05:10:37.036Z,953.3
2023-05-07T05:11:38.897Z,953.3
2023-05-07T05:12:40.849Z,953.3
2023-05-07T05:13:42.565Z,953.3
2023-05-07T05:14:44.298Z,953.3
2023-05-07T05:15:46.389Z,953.2
2023-05-07T05:16:48.322Z,953.2
2023-05-07T05:17:50.646Z,953.3
2023-05-07T05:18:52.540Z,953.3
2023-05-07T05:19:54.497Z,953.2
2023-05-07T05:20:56.347Z,953.3
2023-05-07T05:21:58.243Z,953.3
2023-05-07T05:23:00.045Z,953.3
2023-05-07T05:24:01.955Z,953.3
2023-05-07T05:25:03.947Z,953.2
2023-05-07T05:26:05.809Z,953.3
2023-05-07T05:27:07.648Z,953.3
2023-05-07T05:28:09.602Z,953.3
2023-05-07T05:29:11.359Z,953.3
2023-05-07T05:30:13.764Z,953.3
2023-05-07T05:31:15.829Z,953.3
2023-05-07T05:32:17.712Z,953.4
2023-05-07T05:33:19.664Z,953.3
2023-05-07T05:34:21.525Z,953.4
2023-05-07T05:35:23.564Z,953.3
2023-05-07T05:36:25.422Z,953.3
2023-05-07T05:37:27.268Z,953.3
2023-05-07T05:38:29.226Z,953.3
2023-05-07T05:39:31.077Z,953.4
2023-05-07T05:40:33.034Z,953.4
2023-05-07T05:41:34.873Z,953.4
2023-05-07T05:42:36.735Z,953.4
2023-05-07T05:43:38.590Z,953.4
2023-05-07T05:44:40.535Z,953.4
2023-05-07T05:45:45.175Z,953.4
2023-05-07T05:46:47.222Z,953.4
2023-05-07T05:47:49.302Z,953.4
2023-05-07T05:48:51.286Z,953.3
2023-05-07T05:49:53.260Z,953.4
2023-05-07T05:50:55.231Z,953.3
2023-05-07T05:51:56.970Z,953.3
2023-05-07T05:53:00.655Z,953.3
2023-05-07T05:54:02.616Z,953.3
2023-05-07T05:55:04.372Z,953.3
2023-05-07T05:56:06.316Z,953.4
2023-05-07T05:57:08.080Z,953.4
2023-05-07T05:58:10.014Z,953.4
2023-05-07T05:59:11.986Z,953.3
2023-05-07T06:00:14.818Z,953.3
2023-05-07T06:01:16.593Z,953.3
2023-05-07T06:02:18.570Z,953.4
2023-05-07T06:03:20.546Z,953.3
2023-05-07T06:04:22.474Z,953.4
2023-05-07T06:05:24.555Z,953.4
2023-05-07T06:06:26.853Z,953.4
2023-05-07T06:07:28.816Z,953.4
2023-05-07T06:08:30.683Z,953.4
2023-05-07T06:09:32.509Z,953.4
2023-05-07T06:10:34.364Z,953.4
2023-05-07T06:11:36.210Z,953.4
2023-05-07T06:12:38.275Z,953.4
2023-05-07T06:13:40.040Z,953.4
2023-05-07T06:14:41.961Z,953.4
2023-05-07T06:15:43.819Z,953.4
2023-05-07T06:16:46.010Z,953.4
2023-05-07T06:17:48.057Z,953.4
2023-05-07T06:18:49.884Z,953.4
2023-05-07T06:19:51.918Z,953.4
2023-05-07T06:20:53.679Z,953.4
2023-05-07T06:21:55.734Z,953.3
2023-05-07T06:22:57.696Z,953.3
2023-05-07T06:23:59.328Z,953.3
2023-05-07T06:25:01.390Z,953.3
2023-05-07T06:26:03.241Z,953.2
2023-05-07T06:27:05.087Z,953.3
2023-05-07T06:28:06.945Z,953.2
2023-05-07T06:29:08.756Z,953.3
2023-05-07T06:30:11.479Z,953.2
2023-05-07T06:31:13.861Z,953.3
2023-05-07T06:32:16.239Z,953.3
2023-05-07T06:33:18.236Z,953.3
2023-05-07T06:34:19.955Z,953.3
2023-05-07T06:35:21.903Z,953.2
2023-05-07T06:36:23.786Z,953.2
2023-05-07T06:37:25.832Z,953.2
2023-05-07T06:38:27.794Z,953.2
2023-05-07T06:39:29.747Z,953.2
2023-05-07T06:40:31.588Z,953.2
2023-05-07T06:41:33.343Z,953.2
2023-05-07T06:42:35.114Z,953.2
2023-05-07T06:43:36.951Z,953.2
2023-05-07T06:44:38.702Z,953.1
2023-05-07T06:45:40.447Z,953.1
2023-05-07T06:46:45.634Z,953.1
2023-05-07T06:47:47.637Z,953.1
2023-05-07T06:48:49.379Z,953.1
2023-05-07T06:49:51.311Z,953.1
2023-05-07T06:50:53.161Z,953.1
2023-05-07T06:51:57.878Z,953
2023-05-07T06:52:59.845Z,953
2023-05-07T06:54:01.782Z,953
2023-05-07T06:55:03.752Z,953
2023-05-07T06:56:05.791Z,953
2023-05-07T06:57:07.539Z,953
2023-05-07T06:58:09.286Z,953
2023-05-07T06:59:11.149Z,953
2023-05-07T07:00:13.749Z,953
2023-05-07T07:01:15.783Z,953
2023-05-07T07:02:18.938Z,953
2023-05-07T07:03:20.891Z,953
2023-05-07T07:04:22.931Z,953
2023-05-07T07:05:24.796Z,953
2023-05-07T07:06:26.745Z,953
2023-05-07T07:07:28.695Z,953
2023-05-07T07:08:30.692Z,953
2023-05-07T07:09:32.602Z,953
2023-05-07T07:10:34.460Z,953
2023-05-07T07:11:36.474Z,953
2023-05-07T07:12:38.478Z,953
2023-05-07T07:13:40.316Z,953
2023-05-07T07:14:42.169Z,953
2023-05-07T07:15:44.151Z,953
2023-05-07T07:16:46.066Z,953
2023-05-07T07:17:48.137Z,953
2023-05-07T07:18:49.871Z,953
2023-05-07T07:19:51.731Z,953
2023-05-07T07:20:53.576Z,953
2023-05-07T07:21:55.554Z,953
2023-05-07T07:22:57.380Z,952.9
2023-05-07T07:23:59.425Z,952.9
2023-05-07T07:25:01.464Z,952.9
2023-05-07T07:26:03.329Z,952.9
2023-05-07T07:27:05.218Z,952.9
2023-05-07T07:28:06.936Z,952.9
2023-05-07T07:29:08.877Z,952.9
2023-05-07T07:30:11.432Z,952.9
2023-05-07T07:31:14.339Z,952.9
2023-05-07T07:32:16.270Z,952.9
2023-05-07T07:33:18.027Z,952.9
2023-05-07T07:34:19.985Z,952.9
2023-05-07T07:35:21.612Z,952.9
2023-05-07T07:36:46.453Z,953
2023-05-07T07:37:49.005Z,952.9
2023-05-07T07:38:50.828Z,953
2023-05-07T07:39:52.674Z,953
2023-05-07T07:40:54.520Z,952.9
2023-05-07T07:41:56.491Z,952.9
2023-05-07T07:42:58.451Z,952.9
2023-05-07T07:44:00.172Z,953
2023-05-07T07:45:01.926Z,953
2023-05-07T07:46:03.884Z,953
2023-05-07T07:47:06.015Z,953
2023-05-07T07:48:08.322Z,953
2023-05-07T07:49:10.249Z,953
2023-05-07T07:50:40.363Z,953
2023-05-07T07:51:47.866Z,953
2023-05-07T07:52:49.792Z,953
2023-05-07T07:53:51.598Z,953
2023-05-07T07:54:53.490Z,953
2023-05-07T07:56:00.030Z,953
2023-05-07T07:57:02.109Z,953
2023-05-07T07:58:03.956Z,953
2023-05-07T07:59:05.815Z,953
2023-05-07T08:00:07.759Z,953
2023-05-07T08:01:09.589Z,953
2023-05-07T08:02:11.719Z,953
2023-05-07T08:03:14.196Z,953
2023-05-07T08:04:16.321Z,953
2023-05-07T08:05:18.445Z,953
2023-05-07T08:06:20.294Z,953
2023-05-07T08:07:22.256Z,953
2023-05-07T08:08:24.071Z,953
2023-05-07T08:09:26.149Z,953
2023-05-07T08:10:28.112Z,953
2023-05-07T08:11:30.178Z,952.9
2023-05-07T08:12:32.011Z,953
2023-05-07T08:13:34.164Z,952.9
2023-05-07T08:14:35.926Z,952.9
2023-05-07T08:15:37.771Z,952.9
2023-05-07T08:16:39.751Z,953
2023-05-07T08:17:41.836Z,952.9
2023-05-07T08:18:43.621Z,952.9
2023-05-07T08:19:45.457Z,952.9
2023-05-07T08:20:47.135Z,952.9
2023-05-07T08:21:48.965Z,952.9
2023-05-07T08:22:50.843Z,952.9
2023-05-07T08:23:52.766Z,952.9
2023-05-07T08:24:54.630Z,952.9
2023-05-07T08:25:56.485Z,952.9
2023-05-07T08:26:58.438Z,952.9
2023-05-07T08:28:00.495Z,952.9
2023-05-07T08:29:02.230Z,952.9
2023-05-07T08:30:04.086Z,952.9
2023-05-07T08:31:06.038Z,952.9
2023-05-07T08:32:07.996Z,952.9
2023-05-07T08:33:10.173Z,952.9
2023-05-07T08:34:12.203Z,952.9
2023-05-07T08:35:14.066Z,952.9
2023-05-07T08:36:15.902Z,952.8
2023-05-07T08:37:17.747Z,952.8
2023-05-07T08:38:19.506Z,952.8
2023-05-07T08:39:21.454Z,952.8
2023-05-07T08:40:23.240Z,952.8
2023-05-07T08:41:25.056Z,952.8
2023-05-07T08:42:27.007Z,952.8
2023-05-07T08:43:29.163Z,952.8
2023-05-07T08:44:31.135Z,952.8
2023-05-07T08:45:33.056Z,952.8
2023-05-07T08:46:35.025Z,952.8
2023-05-07T08:47:37.120Z,952.8
2023-05-07T08:48:39.085Z,952.8
2023-05-07T08:49:40.978Z,952.8
2023-05-07T08:50:42.815Z,952.8
2023-05-07T08:51:44.704Z,952.8
2023-05-07T08:52:46.709Z,952.8
2023-05-07T08:53:48.600Z,952.8
2023-05-07T08:54:50.319Z,952.7
2023-05-07T08:55:52.273Z,952.7
2023-05-07T08:56:54.132Z,952.7
2023-05-07T08:57:56.086Z,952.7
2023-05-07T08:58:58.232Z,952.7
2023-05-07T09:00:00.398Z,952.6
2023-05-07T09:01:02.246Z,952.6
2023-05-07T09:02:04.325Z,952.6
2023-05-07T09:03:06.677Z,952.6
2023-05-07T09:04:09.047Z,952.6
2023-05-07T09:05:11.682Z,952.6
2023-05-07T09:06:13.777Z,952.6
2023-05-07T09:07:15.599Z,952.6
2023-05-07T09:08:17.644Z,952.5
2023-05-07T09:09:19.509Z,952.5
2023-05-07T09:10:21.548Z,952.5
2023-05-07T09:11:23.426Z,952.5
2023-05-07T09:12:25.464Z,952.6
2023-05-07T09:13:28.132Z,952.6
2023-05-07T09:14:30.195Z,952.5
2023-05-07T09:15:32.040Z,952.5
2023-05-07T09:16:34.207Z,952.5
2023-05-07T09:17:36.479Z,952.5
2023-05-07T09:18:38.297Z,952.5
2023-05-07T09:19:40.075Z,952.5
2023-05-07T09:20:41.906Z,952.5
2023-05-07T09:21:43.750Z,952.5
2023-05-07T09:22:45.903Z,952.5
2023-05-07T09:23:50.626Z,952.5
2023-05-07T09:24:52.381Z,952.5
2023-05-07T09:25:54.215Z,952.4
2023-05-07T09:26:56.268Z,952.5
2023-05-07T09:27:58.121Z,952.4
2023-05-07T09:29:00.096Z,952.4
2023-05-07T09:30:01.971Z,952.4
2023-05-07T09:31:03.854Z,952.4
2023-05-07T09:32:06.189Z,952.4
2023-05-07T09:33:08.585Z,952.3
2023-05-07T09:34:10.590Z,952.3
2023-05-07T09:35:13.185Z,952.4
2023-05-07T09:36:15.179Z,952.4
2023-05-07T09:37:17.129Z,952.4
2023-05-07T09:38:18.981Z,952.3
2023-05-07T09:39:20.838Z,952.3
2023-05-07T09:40:22.621Z,952.3
2023-05-07T09:41:24.533Z,952.3
2023-05-07T09:42:26.487Z,952.3
2023-05-07T09:43:28.315Z,952.3
2023-05-07T09:44:30.397Z,952.3
2023-05-07T09:45:32.462Z,952.3
2023-05-07T09:46:34.495Z,952.3
2023-05-07T09:47:36.464Z,952.2
2023-05-07T09:48:38.312Z,952.2
2023-05-07T09:49:40.259Z,952.2
2023-05-07T09:50:42.112Z,952.2
2023-05-07T09:51:43.964Z,952.2
2023-05-07T09:52:45.908Z,952.2
2023-05-07T09:53:47.754Z,952.2
2023-05-07T09:54:49.636Z,952.2
2023-05-07T09:55:51.465Z,952.2
2023-05-07T09:56:53.304Z,952.2
2023-05-07T09:57:55.369Z,952.2
2023-05-07T09:58:57.325Z,952.2
2023-05-07T09:59:59.167Z,952.2
2023-05-07T10:01:01.342Z,952.2
2023-05-07T10:02:05.638Z,952.2
2023-05-07T10:03:08.031Z,952.2
2023-05-07T10:04:10.043Z,952.2
2023-05-07T10:05:12.512Z,952.2
2023-05-07T10:06:14.673Z,952.2
2023-05-07T10:07:16.430Z,952.2
2023-05-07T10:08:18.363Z,952.2
2023-05-07T10:09:20.116Z,952.1
2023-05-07T10:10:21.976Z,952.1
2023-05-07T10:11:23.812Z,952.1
2023-05-07T10:12:25.766Z,952
2023-05-07T10:13:28.051Z,952
2023-05-07T10:14:30.192Z,952
2023-05-07T10:15:32.137Z,952
2023-05-07T10:16:34.210Z,952
2023-05-07T10:17:36.449Z,952
2023-05-07T10:18:38.645Z,952
2023-05-07T10:19:40.561Z,952
2023-05-07T10:20:42.408Z,952
2023-05-07T10:21:44.374Z,951.9
2023-05-07T10:22:46.225Z,952
2023-05-07T10:23:48.058Z,952
2023-05-07T10:24:49.820Z,952
2023-05-07T10:26:01.351Z,952
2023-05-07T10:27:03.237Z,951.9
2023-05-07T10:28:04.916Z,951.9
2023-05-07T10:29:06.841Z,951.9
2023-05-07T10:30:08.687Z,951.9
2023-05-07T10:31:10.869Z,951.9
2023-05-07T10:32:13.002Z,951.9
2023-05-07T10:33:15.084Z,951.9
2023-05-07T10:34:17.025Z,951.9
2023-05-07T10:35:18.790Z,951.8
2023-05-07T10:36:20.606Z,951.8
2023-05-07T10:37:22.473Z,951.7
2023-05-07T10:38:24.408Z,951.8
2023-05-07T10:39:26.259Z,951.8
2023-05-07T10:40:28.111Z,951.8
2023-05-07T10:41:29.975Z,951.8
2023-05-07T10:42:31.821Z,951.7
2023-05-07T10:43:33.769Z,951.7
2023-05-07T10:44:35.644Z,951.7
2023-05-07T10:45:37.575Z,951.7
2023-05-07T10:46:39.898Z,951.7
2023-05-07T10:47:42.638Z,951.7
2023-05-07T10:48:44.661Z,951.7
2023-05-07T10:49:46.516Z,951.7
2023-05-07T10:50:48.522Z,951.7
2023-05-07T10:51:50.424Z,951.7
2023-05-07T10:52:52.198Z,951.7
2023-05-07T10:53:53.989Z,951.8
2023-05-07T10:54:55.860Z,951.7
2023-05-07T10:55:57.605Z,951.7
2023-05-07T10:56:59.475Z,951.7
2023-05-07T10:58:01.302Z,951.7
2023-05-07T10:59:03.255Z,951.7
2023-05-07T11:00:05.133Z,951.6
2023-05-07T11:01:06.858Z,951.7
2023-05-07T11:02:09.449Z,951.7
2023-05-07T11:03:11.648Z,951.7
2023-05-07T11:04:13.739Z,951.6
2023-05-07T11:05:15.842Z,951.6
2023-05-07T11:06:17.695Z,951.7
2023-05-07T11:07:19.484Z,951.6
2023-05-07T11:08:21.339Z,951.7
2023-05-07T11:09:23.263Z,951.7
2023-05-07T11:10:25.043Z,951.6
2023-05-07T11:11:27.004Z,951.7
2023-05-07T11:12:28.852Z,951.6
2023-05-07T11:13:30.526Z,951.7
2023-05-07T11:14:32.234Z,951.6
2023-05-07T11:15:34.174Z,951.6
2023-05-07T11:16:36.293Z,951.6
2023-05-07T11:17:38.302Z,951.6
2023-05-07T11:18:40.146Z,951.6
2023-05-07T11:19:41.994Z,951.6
2023-05-07T11:20:43.854Z,951.6
2023-05-07T11:21:45.807Z,951.5
2023-05-07T11:22:47.649Z,951.5
2023-05-07T11:23:49.499Z,951.6
2023-05-07T11:24:51.295Z,951.6
2023-05-07T11:25:53.120Z,951.5
2023-05-07T11:26:54.955Z,951.5
2023-05-07T11:27:56.803Z,951.5
2023-05-07T11:28:59.023Z,951.5
2023-05-07T11:30:01.030Z,951.5
2023-05-07T11:31:02.889Z,951.5
2023-05-07T11:32:05.201Z,951.6
2023-05-07T11:33:07.524Z,951.5
2023-05-07T11:34:09.631Z,951.5
2023-05-07T11:35:12.132Z,951.5
2023-05-07T11:36:14.411Z,951.5
2023-05-07T11:37:16.530Z,951.5
2023-05-07T11:38:18.365Z,951.5
2023-05-07T11:39:20.119Z,951.5
2023-05-07T11:40:21.970Z,951.5
2023-05-07T11:41:23.923Z,951.5
2023-05-07T11:42:25.984Z,951.5
2023-05-07T11:43:27.833Z,951.5
2023-05-07T11:44:29.674Z,951.5
2023-05-07T11:45:31.431Z,951.5
2023-05-07T11:46:33.502Z,951.5
2023-05-07T11:47:35.609Z,951.4
2023-05-07T11:48:37.594Z,951.4
2023-05-07T11:49:39.434Z,951.4
2023-05-07T11:50:41.297Z,951.4
2023-05-07T11:51:43.147Z,951.5
2023-05-07T11:52:45.207Z,951.5
2023-05-07T11:53:47.037Z,951.4
2023-05-07T11:54:48.888Z,951.4
2023-05-07T11:55:50.737Z,951.5
2023-05-07T11:56:52.602Z,951.4
2023-05-07T11:57:54.551Z,951.4
2023-05-07T11:58:56.277Z,951.4
2023-05-07T11:59:58.149Z,951.4
2023-05-07T12:00:59.910Z,951.4
2023-05-07T12:02:01.972Z,951.4
2023-05-07T12:03:04.326Z,951.4
2023-05-07T12:04:06.959Z,951.4
2023-05-07T12:05:09.076Z,951.3
2023-05-07T12:06:11.298Z,951.4
2023-05-07T12:07:13.041Z,951.4
2023-05-07T12:08:14.883Z,951.3
2023-05-07T12:09:16.608Z,951.3
2023-05-07T12:10:18.490Z,951.3
2023-05-07T12:11:20.332Z,951.3
2023-05-07T12:12:22.289Z,951.3
2023-05-07T12:13:24.266Z,951.2
2023-05-07T12:14:26.397Z,951.2
2023-05-07T12:15:28.261Z,951.2
2023-05-07T12:16:30.224Z,951.2
2023-05-07T12:17:32.198Z,951.2
2023-05-07T12:18:34.110Z,951.2
2023-05-07T12:19:35.965Z,951.2
2023-05-07T12:20:37.830Z,951.2
2023-05-07T12:21:39.656Z,951.2
2023-05-07T12:22:41.406Z,951.2
2023-05-07T12:23:43.266Z,951.2
2023-05-07T12:24:45.234Z,951.2
2023-05-07T12:25:47.058Z,951.1
2023-05-07T12:26:48.901Z,951.1
2023-05-07T12:27:50.863Z,951.1
2023-05-07T12:28:52.713Z,951.1
2023-05-07T12:29:54.521Z,951.1
2023-05-07T12:30:56.357Z,951.1
2023-05-07T12:31:58.203Z,951
2023-05-07T12:33:00.489Z,951
2023-05-07T12:34:02.473Z,951
2023-05-07T12:35:04.332Z,951
2023-05-07T12:36:06.174Z,951
2023-05-07T12:37:08.000Z,951
2023-05-07T12:38:09.879Z,951
2023-05-07T12:39:11.733Z,950.9
2023-05-07T12:40:13.484Z,950.9
2023-05-07T12:41:15.331Z,950.9
2023-05-07T12:42:17.185Z,950.9
2023-05-07T12:43:19.125Z,950.9
2023-05-07T12:44:20.966Z,950.9
2023-05-07T12:45:22.724Z,950.8
2023-05-07T12:46:24.716Z,950.8
2023-05-07T12:47:26.770Z,950.8
2023-05-07T12:48:28.706Z,950.8
2023-05-07T12:49:30.630Z,950.8
2023-05-07T12:50:32.388Z,950.8
2023-05-07T12:51:34.228Z,950.8
2023-05-07T12:52:36.182Z,950.7
2023-05-07T12:53:37.988Z,950.8
2023-05-07T12:54:39.951Z,950.7
2023-05-07T12:55:41.846Z,950.7
2023-05-07T12:56:43.694Z,950.7
2023-05-07T12:57:45.643Z,950.7
2023-05-07T12:58:47.491Z,950.7
2023-05-07T12:59:49.248Z,950.6
2023-05-07T13:00:51.094Z,950.6
2023-05-07T13:01:53.058Z,950.5
2023-05-07T13:02:55.109Z,950.5
2023-05-07T13:03:57.342Z,950.5
2023-05-07T13:04:59.113Z,950.6
2023-05-07T13:06:01.168Z,950.6
2023-05-07T13:07:03.115Z,950.5
2023-05-07T13:08:04.958Z,950.5
2023-05-07T13:09:06.824Z,950.5
2023-05-07T13:10:08.687Z,950.6
2023-05-07T13:11:10.520Z,950.6
2023-05-07T13:12:12.369Z,950.5
2023-05-07T13:13:14.452Z,950.5
2023-05-07T13:14:16.155Z,950.5
2023-05-07T13:15:18.018Z,950.6
2023-05-07T13:16:22.935Z,950.5
2023-05-07T13:17:25.036Z,950.5
2023-05-07T13:18:27.612Z,950.5
2023-05-07T13:19:31.978Z,950.5
2023-05-07T13:20:33.820Z,950.5
2023-05-07T13:21:35.669Z,950.5
2023-05-07T13:22:37.630Z,950.5
2023-05-07T13:23:39.631Z,950.4
2023-05-07T13:24:41.823Z,950.4
2023-05-07T13:25:43.675Z,950.4
2023-05-07T13:26:46.652Z,950.4